sensor_id;sensor_type;location;lat;lon;timestamp;P1;durP1;ratioP1;P2;durP2;ratioP2
9643;SDS011;4860;50.900;4.720;2023-02-28T00:00:11;0.53;;;0.53;;
9643;SDS011;4860;50.900;4.720;2023-02-28T00:02:38;0.60;;;0.60;;
9643;SDS011;4860;50.900;4.720;2023-02-28T00:05:05;0.60;;;0.60;;
9643;SDS011;4860;50.900;4.720;2023-02-28T00:07:32;0.57;;;0.57;;
9643;SDS011;4860;50.900;4.720;2023-02-28T00:09:58;0.60;;;0.60;;
9643;SDS011;4860;50.900;4.720;2023-02-28T00:12:25;0.60;;;0.60;;
9643;SDS011;4860;50.900;4.720;2023-02-28T00:14:51;0.60;;;0.60;;
9643;SDS011;4860;50.900;4.720;2023-02-28T00:17:18;0.60;;;0.60;;
9643;SDS011;4860;50.900;4.720;2023-02-28T00:19:49;0.60;;;0.60;;
9643;SDS011;4860;50.900;4.720;2023-02-28T00:22:16;0.70;;;0.70;;
9643;SDS011;4860;50.900;4.720;2023-02-28T00:24:42;0.60;;;0.60;;
9643;SDS011;4860;50.900;4.720;2023-02-28T00:27:08;0.60;;;0.60;;
9643;SDS011;4860;50.900;4.720;2023-02-28T00:29:35;0.60;;;0.60;;
9643;SDS011;4860;50.900;4.720;2023-02-28T00:32:01;0.70;;;0.70;;
9643;SDS011;4860;50.900;4.720;2023-02-28T00:34:27;0.60;;;0.60;;
9643;SDS011;4860;50.900;4.720;2023-02-28T00:36:53;0.60;;;0.60;;
9643;SDS011;4860;50.900;4.720;2023-02-28T00:39:19;0.60;;;0.60;;
9643;SDS011;4860;50.900;4.720;2023-02-28T00:41:45;0.60;;;0.60;;
9643;SDS011;4860;50.900;4.720;2023-02-28T00:44:11;0.60;;;0.60;;
9643;SDS011;4860;50.900;4.720;2023-02-28T00:46:37;0.63;;;0.63;;
9643;SDS011;4860;50.900;4.720;2023-02-28T00:49:04;0.50;;;0.50;;
9643;SDS011;4860;50.900;4.720;2023-02-28T00:51:30;0.50;;;0.50;;
9643;SDS011;4860;50.900;4.720;2023-02-28T00:53:56;0.60;;;0.60;;
9643;SDS011;4860;50.900;4.720;2023-02-28T00:56:22;0.70;;;0.70;;
9643;SDS011;4860;50.900;4.720;2023-02-28T00:58:48;0.60;;;0.60;;
9643;SDS011;4860;50.900;4.720;2023-02-28T01:01:14;0.60;;;0.60;;
9643;SDS011;4860;50.900;4.720;2023-02-28T01:03:40;0.63;;;0.63;;
9643;SDS011;4860;50.900;4.720;2023-02-28T01:06:07;0.60;;;0.60;;
9643;SDS011;4860;50.900;4.720;2023-02-28T01:08:33;0.60;;;0.60;;
9643;SDS011;4860;50.900;4.720;2023-02-28T01:11:06;0.60;;;0.60;;
9643;SDS011;4860;50.900;4.720;2023-02-28T01:13:32;0.60;;;0.60;;
9643;SDS011;4860;50.900;4.720;2023-02-28T01:15:58;0.67;;;0.67;;
9643;SDS011;4860;50.900;4.720;2023-02-28T01:18:24;0.60;;;0.60;;
9643;SDS011;4860;50.900;4.720;2023-02-28T01:20:50;0.60;;;0.60;;
9643;SDS011;4860;50.900;4.720;2023-02-28T01:23:18;0.60;;;0.60;;
9643;SDS011;4860;50.900;4.720;2023-02-28T01:25:44;0.50;;;0.50;;
9643;SDS011;4860;50.900;4.720;2023-02-28T01:28:11;0.50;;;0.50;;
9643;SDS011;4860;50.900;4.720;2023-02-28T01:30:37;0.50;;;0.50;;
9643;SDS011;4860;50.900;4.720;2023-02-28T01:33:03;0.60;;;0.60;;
9643;SDS011;4860;50.900;4.720;2023-02-28T01:35:31;0.70;;;0.70;;
9643;SDS011;4860;50.900;4.720;2023-02-28T01:37:57;0.63;;;0.63;;
9643;SDS011;4860;50.900;4.720;2023-02-28T01:40:23;0.60;;;0.60;;
9643;SDS011;4860;50.900;4.720;2023-02-28T01:42:49;0.67;;;0.67;;
9643;SDS011;4860;50.900;4.720;2023-02-28T01:47:48;0.60;;;0.60;;
9643;SDS011;4860;50.900;4.720;2023-02-28T01:50:18;0.60;;;0.60;;
9643;SDS011;4860;50.900;4.720;2023-02-28T01:52:45;0.60;;;0.60;;
9643;SDS011;4860;50.900;4.720;2023-02-28T01:55:12;0.70;;;0.70;;
9643;SDS011;4860;50.900;4.720;2023-02-28T01:57:40;0.60;;;0.60;;
9643;SDS011;4860;50.900;4.720;2023-02-28T02:00:09;0.60;;;0.60;;
9643;SDS011;4860;50.900;4.720;2023-02-28T02:02:38;0.50;;;0.50;;
9643;SDS011;4860;50.900;4.720;2023-02-28T02:05:09;0.70;;;0.70;;
9643;SDS011;4860;50.900;4.720;2023-02-28T02:07:36;0.50;;;0.50;;
9643;SDS011;4860;50.900;4.720;2023-02-28T02:12:44;0.60;;;0.60;;
9643;SDS011;4860;50.900;4.720;2023-02-28T02:15:19;0.50;;;0.50;;
9643;SDS011;4860;50.900;4.720;2023-02-28T02:17:49;0.60;;;0.60;;
9643;SDS011;4860;50.900;4.720;2023-02-28T02:25:45;0.50;;;0.50;;
9643;SDS011;4860;50.900;4.720;2023-02-28T02:29:00;0.60;;;0.60;;
9643;SDS011;4860;50.900;4.720;2023-02-28T02:31:04;0.60;;;0.60;;
9643;SDS011;4860;50.900;4.720;2023-02-28T02:38:51;0.70;;;0.70;;
9643;SDS011;4860;50.900;4.720;2023-02-28T02:41:21;0.60;;;0.60;;
9643;SDS011;4860;50.900;4.720;2023-02-28T02:46:27;0.60;;;0.60;;
9643;SDS011;4860;50.900;4.720;2023-02-28T02:48:55;0.60;;;0.60;;
9643;SDS011;4860;50.900;4.720;2023-02-28T02:51:22;0.60;;;0.60;;
9643;SDS011;4860;50.900;4.720;2023-02-28T02:54:11;0.70;;;0.70;;
9643;SDS011;4860;50.900;4.720;2023-02-28T02:56:36;0.70;;;0.70;;
9643;SDS011;4860;50.900;4.720;2023-02-28T02:59:04;0.70;;;0.70;;
9643;SDS011;4860;50.900;4.720;2023-02-28T03:01:32;0.70;;;0.70;;
9643;SDS011;4860;50.900;4.720;2023-02-28T03:04:01;0.60;;;0.60;;
9643;SDS011;4860;50.900;4.720;2023-02-28T03:06:28;0.60;;;0.60;;
9643;SDS011;4860;50.900;4.720;2023-02-28T03:08:54;0.50;;;0.50;;
9643;SDS011;4860;50.900;4.720;2023-02-28T03:11:20;0.60;;;0.60;;
9643;SDS011;4860;50.900;4.720;2023-02-28T03:21:27;0.70;;;0.70;;
9643;SDS011;4860;50.900;4.720;2023-02-28T03:23:56;0.60;;;0.60;;
9643;SDS011;4860;50.900;4.720;2023-02-28T03:26:26;0.70;;;0.70;;
9643;SDS011;4860;50.900;4.720;2023-02-28T03:36:31;0.60;;;0.60;;
9643;SDS011;4860;50.900;4.720;2023-02-28T03:38:59;0.57;;;0.57;;
9643;SDS011;4860;50.900;4.720;2023-02-28T03:41:38;0.60;;;0.60;;
9643;SDS011;4860;50.900;4.720;2023-02-28T03:44:10;0.60;;;0.60;;
9643;SDS011;4860;50.900;4.720;2023-02-28T03:46:41;0.60;;;0.60;;
9643;SDS011;4860;50.900;4.720;2023-02-28T03:49:12;0.70;;;0.70;;
9643;SDS011;4860;50.900;4.720;2023-02-28T03:51:40;0.70;;;0.70;;
9643;SDS011;4860;50.900;4.720;2023-02-28T03:54:09;0.70;;;0.70;;
9643;SDS011;4860;50.900;4.720;2023-02-28T03:56:39;0.60;;;0.60;;
9643;SDS011;4860;50.900;4.720;2023-02-28T03:59:18;0.60;;;0.60;;
9643;SDS011;4860;50.900;4.720;2023-02-28T04:01:46;0.60;;;0.60;;
9643;SDS011;4860;50.900;4.720;2023-02-28T04:04:13;0.63;;;0.63;;
9643;SDS011;4860;50.900;4.720;2023-02-28T04:06:40;0.57;;;0.57;;
9643;SDS011;4860;50.900;4.720;2023-02-28T04:09:07;0.60;;;0.60;;
9643;SDS011;4860;50.900;4.720;2023-02-28T04:11:44;0.70;;;0.70;;
9643;SDS011;4860;50.900;4.720;2023-02-28T04:14:11;0.70;;;0.70;;
9643;SDS011;4860;50.900;4.720;2023-02-28T04:16:38;0.60;;;0.60;;
9643;SDS011;4860;50.900;4.720;2023-02-28T04:19:04;0.50;;;0.50;;
9643;SDS011;4860;50.900;4.720;2023-02-28T04:21:38;0.70;;;0.70;;
9643;SDS011;4860;50.900;4.720;2023-02-28T04:24:05;0.70;;;0.70;;
9643;SDS011;4860;50.900;4.720;2023-02-28T04:26:32;0.70;;;0.70;;
9643;SDS011;4860;50.900;4.720;2023-02-28T04:28:59;0.70;;;0.70;;
9643;SDS011;4860;50.900;4.720;2023-02-28T04:31:25;0.50;;;0.50;;
9643;SDS011;4860;50.900;4.720;2023-02-28T04:33:51;0.50;;;0.50;;
9643;SDS011;4860;50.900;4.720;2023-02-28T04:36:18;0.70;;;0.70;;
9643;SDS011;4860;50.900;4.720;2023-02-28T04:38:44;0.70;;;0.70;;
9643;SDS011;4860;50.900;4.720;2023-02-28T04:41:10;0.70;;;0.70;;
9643;SDS011;4860;50.900;4.720;2023-02-28T04:43:36;0.50;;;0.50;;
9643;SDS011;4860;50.900;4.720;2023-02-28T04:46:03;0.70;;;0.70;;
9643;SDS011;4860;50.900;4.720;2023-02-28T04:48:31;0.67;;;0.67;;
9643;SDS011;4860;50.900;4.720;2023-02-28T04:51:01;0.73;;;0.73;;
9643;SDS011;4860;50.900;4.720;2023-02-28T04:53:27;0.60;;;0.60;;
9643;SDS011;4860;50.900;4.720;2023-02-28T04:55:54;0.60;;;0.60;;
9643;SDS011;4860;50.900;4.720;2023-02-28T04:58:20;0.70;;;0.70;;
9643;SDS011;4860;50.900;4.720;2023-02-28T05:00:49;0.53;;;0.53;;
9643;SDS011;4860;50.900;4.720;2023-02-28T05:03:16;0.60;;;0.60;;
9643;SDS011;4860;50.900;4.720;2023-02-28T05:05:42;0.67;;;0.67;;
9643;SDS011;4860;50.900;4.720;2023-02-28T05:08:08;0.67;;;0.67;;
9643;SDS011;4860;50.900;4.720;2023-02-28T05:10:35;0.70;;;0.70;;
9643;SDS011;4860;50.900;4.720;2023-02-28T05:13:01;0.63;;;0.63;;
9643;SDS011;4860;50.900;4.720;2023-02-28T05:15:27;0.60;;;0.60;;
9643;SDS011;4860;50.900;4.720;2023-02-28T05:17:53;0.70;;;0.70;;
9643;SDS011;4860;50.900;4.720;2023-02-28T05:20:19;0.70;;;0.70;;
9643;SDS011;4860;50.900;4.720;2023-02-28T05:22:46;0.60;;;0.60;;
9643;SDS011;4860;50.900;4.720;2023-02-28T05:25:19;0.60;;;0.60;;
9643;SDS011;4860;50.900;4.720;2023-02-28T05:27:46;0.60;;;0.60;;
9643;SDS011;4860;50.900;4.720;2023-02-28T05:30:12;0.60;;;0.60;;
9643;SDS011;4860;50.900;4.720;2023-02-28T05:32:39;0.70;;;0.70;;
9643;SDS011;4860;50.900;4.720;2023-02-28T05:35:08;0.50;;;0.50;;
9643;SDS011;4860;50.900;4.720;2023-02-28T05:37:34;0.70;;;0.70;;
9643;SDS011;4860;50.900;4.720;2023-02-28T05:40:01;0.60;;;0.60;;
9643;SDS011;4860;50.900;4.720;2023-02-28T05:42:30;0.70;;;0.70;;
9643;SDS011;4860;50.900;4.720;2023-02-28T05:44:56;0.53;;;0.53;;
9643;SDS011;4860;50.900;4.720;2023-02-28T05:47:22;0.60;;;0.60;;
9643;SDS011;4860;50.900;4.720;2023-02-28T05:49:48;0.70;;;0.70;;
9643;SDS011;4860;50.900;4.720;2023-02-28T05:52:14;0.60;;;0.60;;
9643;SDS011;4860;50.900;4.720;2023-02-28T05:54:40;0.60;;;0.60;;
9643;SDS011;4860;50.900;4.720;2023-02-28T05:57:06;0.63;;;0.63;;
9643;SDS011;4860;50.900;4.720;2023-02-28T05:59:33;0.50;;;0.50;;
9643;SDS011;4860;50.900;4.720;2023-02-28T06:01:59;0.63;;;0.63;;
9643;SDS011;4860;50.900;4.720;2023-02-28T06:04:25;0.70;;;0.70;;
9643;SDS011;4860;50.900;4.720;2023-02-28T06:06:51;0.60;;;0.60;;
9643;SDS011;4860;50.900;4.720;2023-02-28T06:09:17;0.67;;;0.67;;
9643;SDS011;4860;50.900;4.720;2023-02-28T06:11:44;0.60;;;0.60;;
9643;SDS011;4860;50.900;4.720;2023-02-28T06:14:17;0.60;;;0.60;;
9643;SDS011;4860;50.900;4.720;2023-02-28T06:16:43;0.70;;;0.70;;
9643;SDS011;4860;50.900;4.720;2023-02-28T06:19:10;0.50;;;0.50;;
9643;SDS011;4860;50.900;4.720;2023-02-28T06:21:36;0.60;;;0.60;;
9643;SDS011;4860;50.900;4.720;2023-02-28T06:24:02;0.60;;;0.60;;
9643;SDS011;4860;50.900;4.720;2023-02-28T06:26:29;0.60;;;0.60;;
9643;SDS011;4860;50.900;4.720;2023-02-28T06:28:55;0.60;;;0.60;;
9643;SDS011;4860;50.900;4.720;2023-02-28T06:31:21;0.70;;;0.70;;
9643;SDS011;4860;50.900;4.720;2023-02-28T06:33:49;0.60;;;0.60;;
9643;SDS011;4860;50.900;4.720;2023-02-28T06:36:15;0.60;;;0.60;;
9643;SDS011;4860;50.900;4.720;2023-02-28T06:38:42;0.63;;;0.63;;
9643;SDS011;4860;50.900;4.720;2023-02-28T06:41:08;0.70;;;0.70;;
9643;SDS011;4860;50.900;4.720;2023-02-28T06:43:36;0.60;;;0.60;;
9643;SDS011;4860;50.900;4.720;2023-02-28T06:46:03;0.60;;;0.60;;
9643;SDS011;4860;50.900;4.720;2023-02-28T06:48:29;0.70;;;0.70;;
9643;SDS011;4860;50.900;4.720;2023-02-28T06:51:02;0.67;;;0.67;;
9643;SDS011;4860;50.900;4.720;2023-02-28T06:53:29;0.70;;;0.70;;
9643;SDS011;4860;50.900;4.720;2023-02-28T06:55:55;0.70;;;0.70;;
9643;SDS011;4860;50.900;4.720;2023-02-28T06:58:21;0.60;;;0.60;;
9643;SDS011;4860;50.900;4.720;2023-02-28T07:00:50;0.60;;;0.60;;
9643;SDS011;4860;50.900;4.720;2023-02-28T07:03:16;0.57;;;0.57;;
9643;SDS011;4860;50.900;4.720;2023-02-28T07:05:43;0.60;;;0.60;;
9643;SDS011;4860;50.900;4.720;2023-02-28T07:08:09;0.60;;;0.60;;
9643;SDS011;4860;50.900;4.720;2023-02-28T07:10:39;0.60;;;0.60;;
9643;SDS011;4860;50.900;4.720;2023-02-28T07:13:05;0.60;;;0.60;;
9643;SDS011;4860;50.900;4.720;2023-02-28T07:15:32;0.60;;;0.60;;
9643;SDS011;4860;50.900;4.720;2023-02-28T07:17:58;0.70;;;0.70;;
9643;SDS011;4860;50.900;4.720;2023-02-28T07:20:24;0.50;;;0.50;;
9643;SDS011;4860;50.900;4.720;2023-02-28T07:22:50;0.60;;;0.60;;
9643;SDS011;4860;50.900;4.720;2023-02-28T07:25:25;0.60;;;0.60;;
9643;SDS011;4860;50.900;4.720;2023-02-28T07:27:52;0.60;;;0.60;;
9643;SDS011;4860;50.900;4.720;2023-02-28T07:30:19;0.50;;;0.50;;
9643;SDS011;4860;50.900;4.720;2023-02-28T07:32:45;0.60;;;0.60;;
9643;SDS011;4860;50.900;4.720;2023-02-28T07:35:12;0.60;;;0.60;;
9643;SDS011;4860;50.900;4.720;2023-02-28T07:37:40;0.67;;;0.67;;
9643;SDS011;4860;50.900;4.720;2023-02-28T07:40:07;0.70;;;0.70;;
9643;SDS011;4860;50.900;4.720;2023-02-28T07:42:34;0.60;;;0.60;;
9643;SDS011;4860;50.900;4.720;2023-02-28T07:45:00;0.60;;;0.60;;
9643;SDS011;4860;50.900;4.720;2023-02-28T07:47:26;0.60;;;0.60;;
9643;SDS011;4860;50.900;4.720;2023-02-28T07:49:52;0.60;;;0.60;;
9643;SDS011;4860;50.900;4.720;2023-02-28T07:52:18;0.50;;;0.50;;
9643;SDS011;4860;50.900;4.720;2023-02-28T07:54:44;0.70;;;0.70;;
9643;SDS011;4860;50.900;4.720;2023-02-28T07:57:10;0.60;;;0.60;;
9643;SDS011;4860;50.900;4.720;2023-02-28T07:59:36;0.60;;;0.60;;
9643;SDS011;4860;50.900;4.720;2023-02-28T08:02:02;0.50;;;0.50;;
9643;SDS011;4860;50.900;4.720;2023-02-28T08:04:31;0.60;;;0.60;;
9643;SDS011;4860;50.900;4.720;2023-02-28T08:06:57;0.50;;;0.50;;
9643;SDS011;4860;50.900;4.720;2023-02-28T08:09:25;0.60;;;0.60;;
9643;SDS011;4860;50.900;4.720;2023-02-28T08:11:51;0.60;;;0.60;;
9643;SDS011;4860;50.900;4.720;2023-02-28T08:14:17;0.60;;;0.60;;
9643;SDS011;4860;50.900;4.720;2023-02-28T08:16:43;0.50;;;0.50;;
9643;SDS011;4860;50.900;4.720;2023-02-28T08:19:10;0.60;;;0.60;;
9643;SDS011;4860;50.900;4.720;2023-02-28T08:21:36;0.60;;;0.60;;
9643;SDS011;4860;50.900;4.720;2023-02-28T08:24:02;0.50;;;0.50;;
9643;SDS011;4860;50.900;4.720;2023-02-28T08:26:28;0.57;;;0.57;;
9643;SDS011;4860;50.900;4.720;2023-02-28T08:28:54;0.50;;;0.50;;
9643;SDS011;4860;50.900;4.720;2023-02-28T08:31:20;0.50;;;0.50;;
9643;SDS011;4860;50.900;4.720;2023-02-28T08:33:48;0.60;;;0.60;;
9643;SDS011;4860;50.900;4.720;2023-02-28T08:36:16;0.50;;;0.50;;
9643;SDS011;4860;50.900;4.720;2023-02-28T08:38:43;0.60;;;0.60;;
9643;SDS011;4860;50.900;4.720;2023-02-28T08:41:10;0.60;;;0.60;;
9643;SDS011;4860;50.900;4.720;2023-02-28T08:43:36;0.50;;;0.50;;
9643;SDS011;4860;50.900;4.720;2023-02-28T08:46:03;0.60;;;0.60;;
9643;SDS011;4860;50.900;4.720;2023-02-28T08:48:30;0.70;;;0.70;;
9643;SDS011;4860;50.900;4.720;2023-02-28T08:53:22;0.40;;;0.40;;
9643;SDS011;4860;50.900;4.720;2023-02-28T08:55:59;0.50;;;0.50;;
9643;SDS011;4860;50.900;4.720;2023-02-28T08:58:25;0.50;;;0.50;;
9643;SDS011;4860;50.900;4.720;2023-02-28T09:00:51;0.50;;;0.50;;
9643;SDS011;4860;50.900;4.720;2023-02-28T09:03:17;0.60;;;0.60;;
9643;SDS011;4860;50.900;4.720;2023-02-28T09:05:57;0.50;;;0.50;;
9643;SDS011;4860;50.900;4.720;2023-02-28T09:08:24;0.50;;;0.50;;
9643;SDS011;4860;50.900;4.720;2023-02-28T09:10:50;0.53;;;0.53;;
9643;SDS011;4860;50.900;4.720;2023-02-28T09:13:17;0.60;;;0.60;;
9643;SDS011;4860;50.900;4.720;2023-02-28T09:15:44;0.50;;;0.50;;
9643;SDS011;4860;50.900;4.720;2023-02-28T09:18:10;0.60;;;0.60;;
9643;SDS011;4860;50.900;4.720;2023-02-28T09:20:37;0.60;;;0.60;;
9643;SDS011;4860;50.900;4.720;2023-02-28T09:23:07;0.50;;;0.50;;
9643;SDS011;4860;50.900;4.720;2023-02-28T09:25:34;0.50;;;0.50;;
9643;SDS011;4860;50.900;4.720;2023-02-28T09:28:00;0.60;;;0.60;;
9643;SDS011;4860;50.900;4.720;2023-02-28T09:30:29;0.43;;;0.43;;
9643;SDS011;4860;50.900;4.720;2023-02-28T09:32:56;0.50;;;0.50;;
9643;SDS011;4860;50.900;4.720;2023-02-28T09:35:22;0.50;;;0.50;;
9643;SDS011;4860;50.900;4.720;2023-02-28T09:37:50;0.50;;;0.50;;
9643;SDS011;4860;50.900;4.720;2023-02-28T09:40:17;0.50;;;0.50;;
9643;SDS011;4860;50.900;4.720;2023-02-28T09:42:45;0.50;;;0.50;;
9643;SDS011;4860;50.900;4.720;2023-02-28T09:47:50;0.50;;;0.50;;
9643;SDS011;4860;50.900;4.720;2023-02-28T09:52:52;0.50;;;0.50;;
9643;SDS011;4860;50.900;4.720;2023-02-28T09:55:41;0.50;;;0.50;;
9643;SDS011;4860;50.900;4.720;2023-02-28T09:58:04;0.50;;;0.50;;
9643;SDS011;4860;50.900;4.720;2023-02-28T10:00:33;0.50;;;0.50;;
9643;SDS011;4860;50.900;4.720;2023-02-28T10:05:49;0.50;;;0.50;;
9643;SDS011;4860;50.900;4.720;2023-02-28T10:10:51;0.40;;;0.40;;
9643;SDS011;4860;50.900;4.720;2023-02-28T10:16:06;0.53;;;0.53;;
9643;SDS011;4860;50.900;4.720;2023-02-28T10:18:41;0.50;;;0.50;;
9643;SDS011;4860;50.900;4.720;2023-02-28T10:21:13;0.50;;;0.50;;
9643;SDS011;4860;50.900;4.720;2023-02-28T10:23:43;0.50;;;0.50;;
9643;SDS011;4860;50.900;4.720;2023-02-28T10:26:13;0.50;;;0.50;;
9643;SDS011;4860;50.900;4.720;2023-02-28T10:28:41;0.50;;;0.50;;
9643;SDS011;4860;50.900;4.720;2023-02-28T10:31:10;0.50;;;0.50;;
9643;SDS011;4860;50.900;4.720;2023-02-28T10:33:37;0.50;;;0.50;;
9643;SDS011;4860;50.900;4.720;2023-02-28T10:36:04;0.40;;;0.40;;
9643;SDS011;4860;50.900;4.720;2023-02-28T10:41:05;0.50;;;0.50;;
9643;SDS011;4860;50.900;4.720;2023-02-28T10:43:31;0.50;;;0.50;;
9643;SDS011;4860;50.900;4.720;2023-02-28T10:50:59;0.50;;;0.50;;
9643;SDS011;4860;50.900;4.720;2023-02-28T11:04:01;0.60;;;0.60;;
9643;SDS011;4860;50.900;4.720;2023-02-28T11:06:34;0.50;;;0.50;;
9643;SDS011;4860;50.900;4.720;2023-02-28T11:09:03;0.43;;;0.43;;
9643;SDS011;4860;50.900;4.720;2023-02-28T11:11:30;0.50;;;0.50;;
9643;SDS011;4860;50.900;4.720;2023-02-28T11:13:57;0.40;;;0.40;;
9643;SDS011;4860;50.900;4.720;2023-02-28T11:16:32;0.47;;;0.47;;
9643;SDS011;4860;50.900;4.720;2023-02-28T11:18:59;0.50;;;0.50;;
9643;SDS011;4860;50.900;4.720;2023-02-28T11:21:26;0.50;;;0.50;;
9643;SDS011;4860;50.900;4.720;2023-02-28T11:23:56;0.50;;;0.50;;
9643;SDS011;4860;50.900;4.720;2023-02-28T11:34:34;0.60;;;0.60;;
9643;SDS011;4860;50.900;4.720;2023-02-28T11:37:00;0.50;;;0.50;;
9643;SDS011;4860;50.900;4.720;2023-02-28T11:39:30;0.50;;;0.50;;
9643;SDS011;4860;50.900;4.720;2023-02-28T11:42:00;0.40;;;0.40;;
9643;SDS011;4860;50.900;4.720;2023-02-28T11:55:27;0.50;;;0.50;;
9643;SDS011;4860;50.900;4.720;2023-02-28T11:58:14;0.50;;;0.50;;
9643;SDS011;4860;50.900;4.720;2023-02-28T12:05:45;0.40;;;0.40;;
9643;SDS011;4860;50.900;4.720;2023-02-28T12:13:34;0.50;;;0.50;;
9643;SDS011;4860;50.900;4.720;2023-02-28T12:26:10;0.40;;;0.40;;
9643;SDS011;4860;50.900;4.720;2023-02-28T12:28:41;0.40;;;0.40;;
9643;SDS011;4860;50.900;4.720;2023-02-28T12:31:22;0.40;;;0.40;;
9643;SDS011;4860;50.900;4.720;2023-02-28T12:33:53;0.30;;;0.30;;
9643;SDS011;4860;50.900;4.720;2023-02-28T12:36:22;0.40;;;0.40;;
9643;SDS011;4860;50.900;4.720;2023-02-28T12:39:04;0.40;;;0.40;;
9643;SDS011;4860;50.900;4.720;2023-02-28T12:41:36;0.40;;;0.40;;
9643;SDS011;4860;50.900;4.720;2023-02-28T12:44:07;0.50;;;0.50;;
9643;SDS011;4860;50.900;4.720;2023-02-28T12:46:35;0.40;;;0.40;;
9643;SDS011;4860;50.900;4.720;2023-02-28T12:49:05;0.40;;;0.40;;
9643;SDS011;4860;50.900;4.720;2023-02-28T12:51:32;0.40;;;0.40;;
9643;SDS011;4860;50.900;4.720;2023-02-28T12:54:44;0.40;;;0.40;;
9643;SDS011;4860;50.900;4.720;2023-02-28T12:59:24;0.40;;;0.40;;
9643;SDS011;4860;50.900;4.720;2023-02-28T13:02:02;0.43;;;0.43;;
9643;SDS011;4860;50.900;4.720;2023-02-28T13:09:34;0.40;;;0.40;;
9643;SDS011;4860;50.900;4.720;2023-02-28T13:12:01;0.40;;;0.40;;
9643;SDS011;4860;50.900;4.720;2023-02-28T13:14:35;0.40;;;0.40;;
9643;SDS011;4860;50.900;4.720;2023-02-28T13:19:29;0.40;;;0.40;;
9643;SDS011;4860;50.900;4.720;2023-02-28T13:21:55;0.40;;;0.40;;
9643;SDS011;4860;50.900;4.720;2023-02-28T13:34:35;0.40;;;0.40;;
9643;SDS011;4860;50.900;4.720;2023-02-28T13:39:47;0.40;;;0.40;;
9643;SDS011;4860;50.900;4.720;2023-02-28T13:47:41;0.30;;;0.30;;
9643;SDS011;4860;50.900;4.720;2023-02-28T13:50:19;0.30;;;0.30;;
9643;SDS011;4860;50.900;4.720;2023-02-28T14:01:00;0.40;;;0.40;;
9643;SDS011;4860;50.900;4.720;2023-02-28T14:03:33;0.40;;;0.40;;
9643;SDS011;4860;50.900;4.720;2023-02-28T14:11:25;0.30;;;0.30;;
9643;SDS011;4860;50.900;4.720;2023-02-28T14:13:52;0.40;;;0.40;;
9643;SDS011;4860;50.900;4.720;2023-02-28T14:16:23;0.30;;;0.30;;
9643;SDS011;4860;50.900;4.720;2023-02-28T14:18:58;0.40;;;0.40;;
9643;SDS011;4860;50.900;4.720;2023-02-28T14:26:47;0.40;;;0.40;;
9643;SDS011;4860;50.900;4.720;2023-02-28T14:32:06;0.40;;;0.40;;
9643;SDS011;4860;50.900;4.720;2023-02-28T14:34:45;0.40;;;0.40;;
9643;SDS011;4860;50.900;4.720;2023-02-28T14:37:19;0.47;;;0.47;;
9643;SDS011;4860;50.900;4.720;2023-02-28T14:39:46;0.40;;;0.40;;
9643;SDS011;4860;50.900;4.720;2023-02-28T14:44:57;0.40;;;0.40;;
9643;SDS011;4860;50.900;4.720;2023-02-28T14:47:24;0.40;;;0.40;;
9643;SDS011;4860;50.900;4.720;2023-02-28T14:49:52;0.40;;;0.40;;
9643;SDS011;4860;50.900;4.720;2023-02-28T14:52:20;0.30;;;0.30;;
9643;SDS011;4860;50.900;4.720;2023-02-28T14:54:54;0.40;;;0.40;;
9643;SDS011;4860;50.900;4.720;2023-02-28T14:57:25;0.40;;;0.40;;
9643;SDS011;4860;50.900;4.720;2023-02-28T15:02:29;0.40;;;0.40;;
9643;SDS011;4860;50.900;4.720;2023-02-28T15:07:41;0.40;;;0.40;;
9643;SDS011;4860;50.900;4.720;2023-02-28T15:12:49;0.40;;;0.40;;
9643;SDS011;4860;50.900;4.720;2023-02-28T15:15:16;0.40;;;0.40;;
9643;SDS011;4860;50.900;4.720;2023-02-28T15:18:01;0.30;;;0.30;;
9643;SDS011;4860;50.900;4.720;2023-02-28T15:20:28;0.40;;;0.40;;
9643;SDS011;4860;50.900;4.720;2023-02-28T15:22:55;0.40;;;0.40;;
9643;SDS011;4860;50.900;4.720;2023-02-28T15:25:22;0.33;;;0.33;;
9643;SDS011;4860;50.900;4.720;2023-02-28T15:27:49;0.40;;;0.40;;
9643;SDS011;4860;50.900;4.720;2023-02-28T15:30:17;0.40;;;0.40;;
9643;SDS011;4860;50.900;4.720;2023-02-28T15:32:48;0.40;;;0.40;;
9643;SDS011;4860;50.900;4.720;2023-02-28T15:35:28;0.30;;;0.30;;
9643;SDS011;4860;50.900;4.720;2023-02-28T15:40:27;0.40;;;0.40;;
9643;SDS011;4860;50.900;4.720;2023-02-28T15:42:58;0.40;;;0.40;;
9643;SDS011;4860;50.900;4.720;2023-02-28T15:45:38;0.30;;;0.30;;
9643;SDS011;4860;50.900;4.720;2023-02-28T15:48:12;0.43;;;0.43;;
9643;SDS011;4860;50.900;4.720;2023-02-28T15:50:39;0.40;;;0.40;;
9643;SDS011;4860;50.900;4.720;2023-02-28T15:53:05;0.40;;;0.40;;
9643;SDS011;4860;50.900;4.720;2023-02-28T15:55:37;0.40;;;0.40;;
9643;SDS011;4860;50.900;4.720;2023-02-28T15:58:04;0.40;;;0.40;;
9643;SDS011;4860;50.900;4.720;2023-02-28T16:00:31;0.40;;;0.40;;
9643;SDS011;4860;50.900;4.720;2023-02-28T16:03:00;0.40;;;0.40;;
9643;SDS011;4860;50.900;4.720;2023-02-28T16:05:30;0.30;;;0.30;;
9643;SDS011;4860;50.900;4.720;2023-02-28T16:08:01;0.37;;;0.37;;
9643;SDS011;4860;50.900;4.720;2023-02-28T16:10:28;0.40;;;0.40;;
9643;SDS011;4860;50.900;4.720;2023-02-28T16:12:55;0.30;;;0.30;;
9643;SDS011;4860;50.900;4.720;2023-02-28T16:15:26;0.40;;;0.40;;
9643;SDS011;4860;50.900;4.720;2023-02-28T16:17:53;0.30;;;0.30;;
9643;SDS011;4860;50.900;4.720;2023-02-28T16:20:27;0.40;;;0.40;;
9643;SDS011;4860;50.900;4.720;2023-02-28T16:22:54;0.40;;;0.40;;
9643;SDS011;4860;50.900;4.720;2023-02-28T16:25:22;0.40;;;0.40;;
9643;SDS011;4860;50.900;4.720;2023-02-28T16:27:49;0.40;;;0.40;;
9643;SDS011;4860;50.900;4.720;2023-02-28T16:30:23;0.40;;;0.40;;
9643;SDS011;4860;50.900;4.720;2023-02-28T16:32:50;0.40;;;0.40;;
9643;SDS011;4860;50.900;4.720;2023-02-28T16:35:17;0.40;;;0.40;;
9643;SDS011;4860;50.900;4.720;2023-02-28T16:37:44;0.40;;;0.40;;
9643;SDS011;4860;50.900;4.720;2023-02-28T16:40:17;0.40;;;0.40;;
9643;SDS011;4860;50.900;4.720;2023-02-28T16:42:45;0.37;;;0.37;;
9643;SDS011;4860;50.900;4.720;2023-02-28T16:45:16;0.40;;;0.40;;
9643;SDS011;4860;50.900;4.720;2023-02-28T16:47:44;0.40;;;0.40;;
9643;SDS011;4860;50.900;4.720;2023-02-28T16:50:17;0.40;;;0.40;;
9643;SDS011;4860;50.900;4.720;2023-02-28T16:52:43;0.40;;;0.40;;
9643;SDS011;4860;50.900;4.720;2023-02-28T16:55:10;0.40;;;0.40;;
9643;SDS011;4860;50.900;4.720;2023-02-28T16:57:36;0.40;;;0.40;;
9643;SDS011;4860;50.900;4.720;2023-02-28T17:00:03;0.40;;;0.40;;
9643;SDS011;4860;50.900;4.720;2023-02-28T17:02:29;0.40;;;0.40;;
9643;SDS011;4860;50.900;4.720;2023-02-28T17:04:56;0.43;;;0.43;;
9643;SDS011;4860;50.900;4.720;2023-02-28T17:07:22;0.50;;;0.50;;
9643;SDS011;4860;50.900;4.720;2023-02-28T17:09:48;0.50;;;0.50;;
9643;SDS011;4860;50.900;4.720;2023-02-28T17:12:14;0.43;;;0.43;;
9643;SDS011;4860;50.900;4.720;2023-02-28T17:14:40;0.50;;;0.50;;
9643;SDS011;4860;50.900;4.720;2023-02-28T17:17:06;0.40;;;0.40;;
9643;SDS011;4860;50.900;4.720;2023-02-28T17:19:32;0.40;;;0.40;;
9643;SDS011;4860;50.900;4.720;2023-02-28T17:22:00;0.50;;;0.50;;
9643;SDS011;4860;50.900;4.720;2023-02-28T17:24:28;0.50;;;0.50;;
9643;SDS011;4860;50.900;4.720;2023-02-28T17:26:54;0.57;;;0.57;;
9643;SDS011;4860;50.900;4.720;2023-02-28T17:29:21;0.50;;;0.50;;
9643;SDS011;4860;50.900;4.720;2023-02-28T17:31:47;0.50;;;0.50;;
9643;SDS011;4860;50.900;4.720;2023-02-28T17:34:13;0.50;;;0.50;;
9643;SDS011;4860;50.900;4.720;2023-02-28T17:36:46;0.50;;;0.50;;
9643;SDS011;4860;50.900;4.720;2023-02-28T17:39:13;0.40;;;0.40;;
9643;SDS011;4860;50.900;4.720;2023-02-28T17:41:40;0.50;;;0.50;;
9643;SDS011;4860;50.900;4.720;2023-02-28T17:44:07;0.50;;;0.50;;
9643;SDS011;4860;50.900;4.720;2023-02-28T17:46:33;0.50;;;0.50;;
9643;SDS011;4860;50.900;4.720;2023-02-28T17:48:59;0.40;;;0.40;;
9643;SDS011;4860;50.900;4.720;2023-02-28T17:51:26;0.50;;;0.50;;
9643;SDS011;4860;50.900;4.720;2023-02-28T17:53:52;0.53;;;0.53;;
9643;SDS011;4860;50.900;4.720;2023-02-28T17:56:20;0.50;;;0.50;;
9643;SDS011;4860;50.900;4.720;2023-02-28T17:58:46;0.50;;;0.50;;
9643;SDS011;4860;50.900;4.720;2023-02-28T18:01:12;0.60;;;0.60;;
9643;SDS011;4860;50.900;4.720;2023-02-28T18:03:39;0.60;;;0.60;;
9643;SDS011;4860;50.900;4.720;2023-02-28T18:06:05;0.60;;;0.60;;
9643;SDS011;4860;50.900;4.720;2023-02-28T18:08:32;0.60;;;0.60;;
9643;SDS011;4860;50.900;4.720;2023-02-28T18:11:00;0.50;;;0.50;;